Time;durP1;ratioP1;P1;durP2;ratioP2;P2;SDS_P1;SDS_P2;PMS_P1;PMS_P2;Temp;Humidity;BMP_temperature;BMP_pressure;BME280_temperature;BME280_humidity;BME280_pressure;Samples;Min_cycle;Max_cycle;Signal;HPM_P1;HPM_P2
2022/10/16 00:01:31;;;;;;;5.28;4.88;;;;;;;11.42;100.00;98922.91;5033194;28;20174;-60
2022/10/16 00:04:00;;;;;;;4.70;4.32;;;;;;;11.33;100.00;98927.84;5034117;28;20186;-56
2022/10/16 00:06:26;;;;;;;5.72;5.13;;;;;;;11.22;100.00;98930.28;5034816;28;20255;-56
2022/10/16 00:08:52;;;;;;;7.22;5.68;;;;;;;11.02;100.00;98928.94;5034497;28;20253;-56
2022/10/16 00:11:19;;;;;;;6.63;5.00;;;;;;;10.95;100.00;98931.97;5034349;28;20175;-56
2022/10/16 00:13:47;;;;;;;6.32;4.90;;;;;;;10.92;100.00;98937.38;5034632;28;20649;-56
2022/10/16 00:16:14;;;;;;;5.57;4.68;;;;;;;10.97;100.00;98935.31;5034642;28;20240;-56
2022/10/16 00:18:40;;;;;;;7.55;4.95;;;;;;;10.88;100.00;98930.69;5034614;28;20185;-57
2022/10/16 00:21:14;;;;;;;7.00;4.60;;;;;;;10.92;100.00;98927.81;5034303;28;20617;-57
2022/10/16 00:23:40;;;;;;;4.95;4.50;;;;;;;10.89;100.00;98932.34;5034285;28;20546;-56
2022/10/16 00:26:09;;;;;;;7.80;5.25;;;;;;;10.88;100.00;98938.47;5034061;28;20186;-56
2022/10/16 00:28:35;;;;;;;6.18;5.05;;;;;;;10.91;100.00;98927.94;5034522;28;20179;-56
2022/10/16 00:31:09;;;;;;;6.32;4.82;;;;;;;10.91;100.00;98922.75;5034400;28;20178;-56
2022/10/16 00:33:36;;;;;;;6.57;5.50;;;;;;;10.99;100.00;98929.13;5033767;28;20209;-57
2022/10/16 00:36:04;;;;;;;4.82;4.43;;;;;;;11.04;100.00;98923.66;5033878;28;20281;-57
2022/10/16 00:38:29;;;;;;;5.60;4.80;;;;;;;11.07;100.00;98920.84;5034200;28;20617;-57
2022/10/16 00:40:55;;;;;;;5.22;4.72;;;;;;;11.12;100.00;98924.84;5034185;28;20253;-56
2022/10/16 00:43:53;;;;;;;5.40;4.85;;;;;;;11.20;100.00;98924.38;5032557;28;20170;-56
2022/10/16 00:46:26;;;;;;;7.30;4.78;;;;;;;11.19;100.00;98930.44;5032577;28;20182;-56
2022/10/16 00:49:03;;;;;;;4.93;4.53;;;;;;;11.30;100.00;98930.59;5033936;28;20572;-56
2022/10/16 00:51:36;;;;;;;5.47;4.97;;;;;;;11.23;100.00;98937.13;5033873;28;20177;-57
2022/10/16 00:54:06;;;;;;;4.85;4.40;;;;;;;11.20;100.00;98934.72;5033877;28;20221;-57
2022/10/16 00:56:31;;;;;;;7.22;4.63;;;;;;;11.16;100.00;98951.38;5033599;28;20171;-56
2022/10/16 00:58:59;;;;;;;5.65;5.13;;;;;;;11.06;100.00;98952.88;5034024;28;20228;-56
2022/10/16 01:01:24;;;;;;;6.88;5.05;;;;;;;10.94;100.00;98945.84;5033506;28;20213;-56
2022/10/16 01:03:50;;;;;;;5.95;5.25;;;;;;;10.89;100.00;98947.88;5033435;28;20280;-56
2022/10/16 01:06:31;;;;;;;5.15;4.70;;;;;;;10.89;100.00;98953.06;5033627;28;20563;-56
2022/10/16 01:09:33;;;;;;;5.95;4.88;;;;;;;10.87;100.00;98955.78;5033662;28;20515;-56
2022/10/16 01:12:29;;;;;;;5.13;4.68;;;;;;;10.79;100.00;98957.16;5033389;28;20237;-57
2022/10/16 01:15:18;;;;;;;6.93;5.25;;;;;;;10.75;100.00;98956.50;5033450;28;20201;-56
2022/10/16 01:17:53;;;;;;;8.35;5.07;;;;;;;10.77;100.00;98967.59;5033579;28;20652;-56
2022/10/16 01:20:30;;;;;;;7.53;4.90;;;;;;;10.73;100.00;98963.53;5033219;28;20170;-57
2022/10/16 01:23:17;;;;;;;5.53;5.03;;;;;;;10.80;100.00;98971.75;5033009;28;20587;-57
2022/10/16 01:25:54;;;;;;;4.90;4.50;;;;;;;10.75;100.00;98960.84;5033304;28;20162;-56
2022/10/16 01:28:25;;;;;;;5.50;4.90;;;;;;;10.82;100.00;98969.91;5033036;28;20232;-57
2022/10/16 01:30:55;;;;;;;7.57;4.85;;;;;;;10.82;100.00;98967.31;5033278;28;20193;-57
2022/10/16 01:33:28;;;;;;;5.95;4.88;;;;;;;11.01;100.00;98978.22;5032895;28;20217;-57
2022/10/16 01:36:00;;;;;;;5.95;5.07;;;;;;;11.05;100.00;98982.28;5032851;28;20233;-56
2022/10/16 01:38:31;;;;;;;6.03;5.03;;;;;;;11.13;100.00;98980.03;5033371;28;20154;-57
2022/10/16 01:41:03;;;;;;;5.35;4.85;;;;;;;11.19;100.00;98977.06;5032817;28;20254;-56
2022/10/16 01:43:34;;;;;;;5.55;5.05;;;;;;;11.26;100.00;98978.38;5033176;28;20639;-57
2022/10/16 01:46:01;;;;;;;5.93;5.43;;;;;;;11.28;100.00;98979.09;5032457;28;20200;-56
2022/10/16 01:48:28;;;;;;;6.00;5.40;;;;;;;11.35;100.00;98988.16;5032689;28;20185;-57
2022/10/16 01:51:03;;;;;;;6.72;5.47;;;;;;;11.41;100.00;98983.44;5031382;28;20647;-56
2022/10/16 01:53:30;;;;;;;5.32;4.85;;;;;;;11.42;100.00;98981.66;5031255;28;20304;-57
2022/10/16 01:55:59;;;;;;;5.55;5.03;;;;;;;11.40;100.00;98986.97;5032513;28;20244;-57
2022/10/16 01:58:25;;;;;;;5.80;5.30;;;;;;;11.41;100.00;98982.59;5032678;28;20174;-56
2022/10/16 02:00:54;;;;;;;5.22;4.47;;;;;;;11.49;100.00;98986.34;5032365;28;20174;-56
2022/10/16 02:03:20;;;;;;;7.75;5.10;;;;;;;11.53;100.00;98993.03;5032258;28;20175;-57
2022/10/16 02:05:51;;;;;;;5.40;5.00;;;;;;;11.53;100.00;98987.00;5032339;28;20258;-56
2022/10/16 02:08:17;;;;;;;6.78;4.90;;;;;;;11.59;100.00;98986.63;5032608;28;20159;-56
2022/10/16 02:10:42;;;;;;;6.75;5.30;;;;;;;11.53;100.00;98994.78;5032489;28;20549;-57
2022/10/16 02:13:13;;;;;;;5.10;4.57;;;;;;;11.51;100.00;98991.47;5032634;28;20194;-57
2022/10/16 02:15:38;;;;;;;5.55;5.03;;;;;;;11.34;100.00;99002.88;5032181;28;20171;-56
2022/10/16 02:18:06;;;;;;;11.68;5.53;;;;;;;11.35;100.00;99003.69;5032205;28;20704;-56
2022/10/16 02:20:55;;;;;;;4.80;4.40;;;;;;;11.29;100.00;98998.91;5032133;28;20174;-57
2022/10/16 02:23:43;;;;;;;4.97;4.50;;;;;;;11.29;100.00;99004.94;5031953;28;20185;-56
2022/10/16 02:26:15;;;;;;;6.57;4.63;;;;;;;11.30;100.00;98997.97;5032648;28;20163;-56
2022/10/16 02:28:48;;;;;;;5.45;4.97;;;;;;;11.30;100.00;99006.59;5032339;28;20608;-56
2022/10/16 02:31:18;;;;;;;4.78;4.38;;;;;;;11.24;100.00;98998.34;5031229;28;20166;-56
2022/10/16 02:33:46;;;;;;;6.32;5.03;;;;;;;11.23;100.00;99001.88;5031946;28;20190;-56
2022/10/16 02:36:11;;;;;;;5.88;4.93;;;;;;;11.18;100.00;98998.72;5031895;28;20732;-56
2022/10/16 02:38:39;;;;;;;5.40;4.93;;;;;;;11.17;100.00;98999.66;5031977;28;20180;-56
2022/10/16 02:41:05;;;;;;;6.47;4.93;;;;;;;11.19;100.00;99000.38;5032210;28;20557;-56
2022/10/16 02:43:32;;;;;;;5.68;5.15;;;;;;;11.15;100.00;99004.13;5031845;28;20174;-57
2022/10/16 02:45:57;;;;;;;5.45;4.68;;;;;;;11.13;100.00;98993.00;5032170;28;20185;-56
2022/10/16 02:48:22;;;;;;;6.18;5.53;;;;;;;11.12;100.00;99018.06;5032073;28;20170;-56
2022/10/16 02:50:48;;;;;;;6.00;5.35;;;;;;;11.14;100.00;99018.81;5031803;28;20257;-56
2022/10/16 02:53:13;;;;;;;6.03;5.20;;;;;;;11.14;100.00;99023.16;5031778;28;20205;-56
2022/10/16 02:55:38;;;;;;;5.65;5.15;;;;;;;11.18;100.00;99016.84;5032675;28;20166;-56
2022/10/16 02:58:04;;;;;;;5.70;5.20;;;;;;;11.13;100.00;99018.88;5036144;28;20181;-56
2022/10/16 03:00:29;;;;;;;5.25;4.75;;;;;;;11.17;100.00;99020.38;5035760;28;20174;-56
2022/10/16 03:02:55;;;;;;;5.85;5.25;;;;;;;11.14;100.00;99021.41;5035700;28;20260;-56
2022/10/16 03:05:20;;;;;;;5.28;4.50;;;;;;;11.30;100.00;99026.47;5035928;28;20213;-56
2022/10/16 03:07:45;;;;;;;5.60;5.00;;;;;;;11.24;100.00;99029.44;5035637;28;20671;-56
2022/10/16 03:10:11;;;;;;;5.35;4.95;;;;;;;11.37;100.00;99027.78;5035637;28;20178;-56
2022/10/16 03:12:36;;;;;;;7.07;4.85;;;;;;;11.44;99.82;99024.69;5034400;28;20171;-56
2022/10/16 03:15:02;;;;;;;5.25;4.63;;;;;;;11.47;100.00;99031.44;5035673;28;20198;-56
2022/10/16 03:17:28;;;;;;;5.72;4.75;;;;;;;11.42;100.00;99021.38;5035728;28;20174;-56
2022/10/16 03:19:53;;;;;;;5.53;5.03;;;;;;;11.49;100.00;99034.78;5034166;28;20184;-56
2022/10/16 03:22:18;;;;;;;7.05;4.80;;;;;;;11.48;99.76;99035.69;5034049;28;20194;-56
2022/10/16 03:24:44;;;;;;;5.32;4.72;;;;;;;11.43;100.00;99043.75;5033858;28;20210;-56
2022/10/16 03:27:09;;;;;;;5.38;4.95;;;;;;;11.39;100.00;99037.09;5035311;28;20170;-56
2022/10/16 03:29:34;;;;;;;4.82;4.30;;;;;;;11.41;100.00;99035.25;5035462;28;20174;-56
2022/10/16 03:32:01;;;;;;;5.00;4.50;;;;;;;11.46;98.41;99038.41;5035485;28;20178;-56
2022/10/16 03:34:26;;;;;;;5.13;4.72;;;;;;;11.52;98.33;99037.16;5034971;28;20210;-57
2022/10/16 03:36:52;;;;;;;5.53;4.38;;;;;;;11.56;97.89;99043.84;5035082;28;20738;-56
2022/10/16 03:39:19;;;;;;;5.13;4.63;;;;;;;11.66;97.98;99044.94;5035356;28;20202;-57
2022/10/16 03:41:46;;;;;;;7.03;4.93;;;;;;;11.71;97.87;99048.06;5035017;28;20233;-57
2022/10/16 03:44:11;;;;;;;5.13;4.65;;;;;;;11.68;98.60;99046.50;5034979;28;20166;-57
2022/10/16 03:46:37;;;;;;;5.18;4.70;;;;;;;11.69;97.59;99050.78;5035528;28;20182;-57
2022/10/16 03:49:02;;;;;;;6.00;4.50;;;;;;;11.80;97.38;99052.69;5034878;28;20181;-56
2022/10/16 03:51:27;;;;;;;5.47;4.78;;;;;;;11.70;96.69;99065.41;5035134;28;20265;-57
2022/10/16 03:53:53;;;;;;;5.95;5.15;;;;;;;11.70;97.34;99061.97;5034780;28;20190;-56
2022/10/16 03:56:18;;;;;;;6.88;5.15;;;;;;;11.65;98.10;99053.66;5034779;28;20173;-56
2022/10/16 03:58:43;;;;;;;4.95;4.30;;;;;;;11.58;98.06;99058.41;5034733;28;20464;-56
2022/10/16 04:01:09;;;;;;;5.18;4.70;;;;;;;11.56;97.46;99062.78;5034642;28;20644;-56
2022/10/16 04:03:34;;;;;;;6.63;5.15;;;;;;;11.46;97.50;99053.09;5033390;28;20178;-56
2022/10/16 04:06:00;;;;;;;4.97;4.57;;;;;;;11.37;98.61;99064.03;5034635;28;20205;-56
2022/10/16 04:08:25;;;;;;;5.50;5.00;;;;;;;11.25;99.31;99055.25;5034268;28;20652;-56
2022/10/16 04:10:51;;;;;;;5.07;4.65;;;;;;;11.22;99.25;99060.63;5034716;28;20174;-56
2022/10/16 04:13:16;;;;;;;6.60;5.30;;;;;;;11.21;98.81;99052.94;5034375;28;20191;-56
2022/10/16 04:15:41;;;;;;;5.65;4.75;;;;;;;11.30;99.64;99057.56;5034930;28;20179;-56
2022/10/16 04:18:07;;;;;;;7.97;5.32;;;;;;;11.18;99.77;99053.97;5034615;28;20527;-56
2022/10/16 04:20:33;;;;;;;5.55;4.93;;;;;;;11.04;99.51;99055.72;5033010;28;20675;-56
2022/10/16 04:22:59;;;;;;;5.00;4.50;;;;;;;11.03;99.92;99043.69;5034110;28;20194;-56
2022/10/16 04:25:24;;;;;;;5.93;5.28;;;;;;;11.05;99.87;99042.69;5034188;28;20723;-56
2022/10/16 04:27:53;;;;;;;6.10;5.15;;;;;;;11.09;98.80;99053.69;5034184;28;20200;-56
2022/10/16 04:30:18;;;;;;;6.22;5.05;;;;;;;11.13;99.41;99055.16;5034078;28;20178;-56
2022/10/16 04:32:48;;;;;;;5.60;5.10;;;;;;;11.18;99.38;99056.56;5034147;28;20174;-56
2022/10/16 04:35:14;;;;;;;5.50;5.00;;;;;;;11.21;100.00;99058.94;5034494;28;20210;-56
2022/10/16 04:37:39;;;;;;;5.13;4.30;;;;;;;11.17;99.18;99061.81;5034035;28;20173;-55
2022/10/16 04:40:05;;;;;;;6.57;5.60;;;;;;;11.24;99.79;99073.47;5034276;28;20178;-55
2022/10/16 04:42:30;;;;;;;8.38;6.13;;;;;;;11.27;99.18;99078.47;5033936;28;20261;-55
2022/10/16 04:44:56;;;;;;;9.43;5.65;;;;;;;11.08;100.00;99077.94;5032650;28;20170;-56
2022/10/16 04:47:21;;;;;;;7.28;6.13;;;;;;;11.10;100.00;99091.59;5032540;28;20178;-56
2022/10/16 04:49:46;;;;;;;9.10;6.38;;;;;;;10.94;100.00;99083.94;5034052;28;20178;-55
2022/10/16 04:52:12;;;;;;;7.63;6.00;;;;;;;10.54;100.00;99078.56;5034035;28;20655;-56
2022/10/16 04:54:37;;;;;;;8.80;5.85;;;;;;;10.25;100.00;99080.25;5033622;28;20201;-56
2022/10/16 04:57:04;;;;;;;10.07;7.03;;;;;;;10.36;100.00;99077.88;5033582;28;20553;-56
2022/10/16 04:59:30;;;;;;;8.80;6.35;;;;;;;10.41;100.00;99075.03;5032302;28;20186;-56
2022/10/16 05:01:55;;;;;;;8.82;6.72;;;;;;;10.56;100.00;99074.97;5033569;28;20613;-56
2022/10/16 05:04:21;;;;;;;7.68;6.55;;;;;;;10.59;100.00;99079.97;5033474;28;20644;-56
2022/10/16 05:06:47;;;;;;;7.55;6.15;;;;;;;10.27;100.00;99078.38;5033434;28;20257;-56
2022/10/16 05:09:13;;;;;;;8.25;5.82;;;;;;;10.30;100.00;99067.03;5033388;28;20205;-56
2022/10/16 05:11:38;;;;;;;7.15;5.88;;;;;;;10.54;100.00;99075.97;5033323;28;20206;-56
2022/10/16 05:14:04;;;;;;;6.18;5.57;;;;;;;10.69;100.00;99083.69;5033213;28;20202;-56
2022/10/16 05:16:30;;;;;;;8.05;5.70;;;;;;;10.70;100.00;99084.53;5033511;28;20178;-56
2022/10/16 05:18:56;;;;;;;7.10;5.45;;;;;;;10.78;100.00;99082.31;5033463;28;20539;-56
2022/10/16 05:21:21;;;;;;;7.22;5.65;;;;;;;10.81;100.00;99082.97;5033303;28;20178;-56
2022/10/16 05:23:47;;;;;;;6.03;5.10;;;;;;;10.82;100.00;99087.25;5033305;28;20242;-56
2022/10/16 05:26:12;;;;;;;8.00;4.82;;;;;;;10.88;100.00;99096.38;5033126;28;20177;-56
2022/10/16 05:28:37;;;;;;;5.53;5.00;;;;;;;10.94;100.00;99104.63;5033532;28;20179;-56
2022/10/16 05:31:09;;;;;;;6.53;4.82;;;;;;;10.72;100.00;99111.13;5032994;28;20163;-56
2022/10/16 05:33:35;;;;;;;6.78;5.70;;;;;;;10.76;100.00;99097.09;5032880;28;20209;-56
2022/10/16 05:36:09;;;;;;;5.38;4.97;;;;;;;10.79;100.00;99105.53;5032932;28;20194;-56
2022/10/16 05:38:36;;;;;;;6.97;5.88;;;;;;;10.84;100.00;99111.28;5033188;28;20166;-56
2022/10/16 05:41:03;;;;;;;5.45;5.07;;;;;;;10.96;100.00;99114.88;5032870;28;20174;-56
2022/10/16 05:43:29;;;;;;;5.50;5.00;;;;;;;11.00;100.00;99121.56;5032727;28;20178;-56
2022/10/16 05:46:01;;;;;;;5.45;4.75;;;;;;;10.94;100.00;99117.59;5033556;28;20213;-56
2022/10/16 05:48:27;;;;;;;6.03;4.93;;;;;;;11.10;100.00;99128.69;5031368;28;20175;-56
2022/10/16 05:51:00;;;;;;;5.70;5.15;;;;;;;11.16;100.00;99127.50;5032611;28;20202;-56
2022/10/16 05:53:28;;;;;;;5.40;4.90;;;;;;;11.28;100.00;99137.97;5032785;28;20190;-56
2022/10/16 05:55:55;;;;;;;6.45;5.82;;;;;;;11.33;100.00;99133.31;5032826;28;20228;-56
2022/10/16 05:58:21;;;;;;;6.57;5.57;;;;;;;11.46;100.00;99139.47;5032777;28;20265;-56
2022/10/16 06:01:01;;;;;;;9.63;7.00;;;;;;;11.55;100.00;99140.66;5032701;28;20258;-56
2022/10/16 06:03:27;;;;;;;7.22;6.50;;;;;;;11.52;100.00;99139.09;5032356;28;20178;-56
2022/10/16 06:05:53;;;;;;;9.07;6.70;;;;;;;11.61;100.00;99142.91;5032418;28;20733;-57
2022/10/16 06:08:20;;;;;;;8.45;6.88;;;;;;;11.61;100.00;99137.72;5032369;28;20232;-56
2022/10/16 06:10:47;;;;;;;8.27;6.57;;;;;;;11.72;100.00;99141.31;5032844;28;20261;-57
2022/10/16 06:13:14;;;;;;;7.80;6.40;;;;;;;11.77;100.00;99143.63;5032149;28;20174;-57
2022/10/16 06:15:41;;;;;;;6.28;5.68;;;;;;;11.82;98.86;99147.59;5032226;28;20183;-56
2022/10/16 06:18:10;;;;;;;7.45;5.47;;;;;;;11.84;98.90;99147.53;5032188;28;20643;-57
2022/10/16 06:20:37;;;;;;;5.25;4.60;;;;;;;11.95;97.94;99150.25;5030900;28;20192;-57
2022/10/16 06:23:03;;;;;;;6.22;5.50;;;;;;;11.98;97.46;99144.88;5032073;28;20191;-57
2022/10/16 06:25:30;;;;;;;6.13;5.25;;;;;;;12.09;96.84;99150.25;5032392;28;20174;-56
2022/10/16 06:27:55;;;;;;;7.28;4.82;;;;;;;12.17;95.71;99151.44;5030833;28;20186;-57
2022/10/16 06:30:20;;;;;;;5.65;5.03;;;;;;;12.21;95.89;99152.06;5031627;28;20177;-56
2022/10/16 06:32:46;;;;;;;5.75;5.25;;;;;;;12.11;95.66;99140.59;5032297;28;20615;-57
2022/10/16 06:35:11;;;;;;;6.88;4.85;;;;;;;12.24;95.92;99162.22;5031971;28;20206;-57
2022/10/16 06:37:36;;;;;;;8.50;5.57;;;;;;;12.38;95.01;99170.00;5032279;28;20182;-57
2022/10/16 06:40:04;;;;;;;9.57;5.82;;;;;;;12.41;95.14;99177.56;5032257;28;20174;-57
2022/10/16 06:42:29;;;;;;;6.70;5.63;;;;;;;12.52;94.39;99182.91;5032226;28;20313;-56
2022/10/16 06:44:55;;;;;;;7.97;6.72;;;;;;;12.55;94.92;99188.72;5031887;28;20681;-56
2022/10/16 06:47:21;;;;;;;10.77;7.30;;;;;;;12.67;95.78;99202.72;5031920;28;20175;-56
2022/10/16 06:49:46;;;;;;;11.52;7.72;;;;;;;12.74;94.47;99193.59;5032114;28;20174;-57
2022/10/16 06:52:11;;;;;;;10.48;7.10;;;;;;;12.79;93.53;99197.56;5031845;28;20663;-57
2022/10/16 06:54:37;;;;;;;9.75;7.72;;;;;;;12.94;94.02;99201.75;5031783;28;20285;-57
2022/10/16 06:57:02;;;;;;;13.73;9.38;;;;;;;12.98;93.66;99200.66;5032082;28;20182;-57
2022/10/16 06:59:28;;;;;;;13.43;7.97;;;;;;;13.18;92.54;99205.34;5031938;28;20189;-57
2022/10/16 07:01:53;;;;;;;16.63;8.60;;;;;;;13.32;92.48;99205.28;5031728;28;20534;-57
2022/10/16 07:04:18;;;;;;;14.20;7.63;;;;;;;13.38;91.20;99206.63;5031750;28;20205;-57
2022/10/16 07:06:44;;;;;;;14.65;8.07;;;;;;;13.38;90.03;99211.81;5031704;28;20255;-57
2022/10/16 07:09:10;;;;;;;16.92;8.27;;;;;;;13.21;91.80;99209.53;5032293;28;20174;-57
2022/10/16 07:11:38;;;;;;;14.38;8.27;;;;;;;13.22;91.42;99204.22;5031676;28;20174;-58
2022/10/16 07:14:04;;;;;;;16.08;7.78;;;;;;;13.33;91.88;99214.75;5031555;28;20201;-57
2022/10/16 07:16:32;;;;;;;15.25;8.45;;;;;;;13.46;92.23;99218.19;5031547;28;20730;-57
2022/10/16 07:18:59;;;;;;;9.25;7.95;;;;;;;13.62;90.85;99213.63;5031559;28;20175;-57
2022/10/16 07:21:27;;;;;;;10.95;7.40;;;;;;;13.70;89.14;99218.31;5030194;28;20193;-57
2022/10/16 07:23:55;;;;;;;10.07;7.25;;;;;;;13.85;87.82;99222.44;5031527;28;20158;-57
2022/10/16 07:26:22;;;;;;;9.90;7.45;;;;;;;13.94;86.72;99219.22;5032082;28;20255;-57
2022/10/16 07:28:48;;;;;;;10.48;7.22;;;;;;;13.79;86.47;99225.47;5031738;28;20174;-57
2022/10/16 07:31:15;;;;;;;10.48;7.20;;;;;;;13.92;86.40;99224.50;5031703;28;20205;-59
2022/10/16 07:33:44;;;;;;;10.32;7.10;;;;;;;13.92;84.75;99227.13;5031393;28;20285;-57
2022/10/16 07:36:10;;;;;;;12.45;8.23;;;;;;;13.71;86.79;99225.16;5031643;28;20224;-57
2022/10/16 07:38:35;;;;;;;17.08;7.97;;;;;;;13.90;85.38;99225.56;5031429;28;20178;-58
2022/10/16 07:41:03;;;;;;;10.10;7.80;;;;;;;14.05;85.29;99219.31;5031723;28;20171;-57
2022/10/16 07:43:29;;;;;;;9.02;7.88;;;;;;;14.09;83.96;99215.53;5033729;28;20273;-57
2022/10/16 07:45:55;;;;;;;18.00;8.35;;;;;;;14.15;83.84;99215.94;5035038;28;20609;-58
2022/10/16 07:48:21;;;;;;;8.27;7.40;;;;;;;14.16;84.03;99227.16;5033686;28;20210;-57
2022/10/16 07:50:47;;;;;;;13.95;7.95;;;;;;;14.30;83.49;99224.47;5034832;28;20257;-57
2022/10/16 07:53:13;;;;;;;10.43;6.78;;;;;;;14.41;82.73;99224.56;5034990;28;20253;-57
2022/10/16 07:55:39;;;;;;;9.10;6.85;;;;;;;14.53;81.46;99226.28;5034988;28;20190;-58
2022/10/16 07:58:05;;;;;;;7.20;6.28;;;;;;;14.69;80.65;99226.84;5034752;28;20228;-57
2022/10/16 08:00:31;;;;;;;7.30;6.38;;;;;;;14.68;80.08;99220.78;5034944;28;20262;-58
2022/10/16 08:03:00;;;;;;;8.93;6.70;;;;;;;14.71;79.89;99228.41;5034638;28;20635;-57
2022/10/16 08:05:31;;;;;;;13.82;7.13;;;;;;;14.89;79.88;99226.22;5034848;28;20583;-57
2022/10/16 08:07:57;;;;;;;12.98;8.00;;;;;;;14.98;79.19;99238.59;5034532;28;20651;-57
2022/10/16 08:10:24;;;;;;;18.10;7.72;;;;;;;15.07;79.35;99235.28;5034724;28;20190;-57
2022/10/16 08:12:50;;;;;;;14.32;7.53;;;;;;;15.20;77.85;99236.03;5034672;28;20585;-57
2022/10/16 08:15:16;;;;;;;12.52;7.53;;;;;;;15.33;77.30;99227.22;5032988;28;20205;-57
2022/10/16 08:17:42;;;;;;;11.75;7.40;;;;;;;15.47;76.51;99234.03;5034362;28;20179;-57
2022/10/16 08:20:08;;;;;;;14.75;7.35;;;;;;;15.55;75.52;99235.13;5034400;28;20719;-57
2022/10/16 08:22:33;;;;;;;16.33;7.40;;;;;;;15.67;75.54;99231.56;5034357;28;20255;-57
2022/10/16 08:24:59;;;;;;;9.52;6.55;;;;;;;15.82;74.53;99232.19;5034255;28;20640;-57
2022/10/16 08:27:24;;;;;;;10.30;7.57;;;;;;;15.91;73.15;99223.66;5034544;28;20261;-57
2022/10/16 08:29:49;;;;;;;13.80;6.90;;;;;;;15.88;72.48;99227.34;5034226;28;20232;-57
2022/10/16 08:32:15;;;;;;;9.93;7.40;;;;;;;15.94;72.64;99221.63;5034158;28;20200;-57
2022/10/16 08:34:41;;;;;;;11.27;6.63;;;;;;;16.00;72.03;99226.38;5032725;28;20218;-57
2022/10/16 08:37:07;;;;;;;12.55;6.45;;;;;;;16.03;70.84;99222.72;5034112;28;20716;-57
2022/10/16 08:39:33;;;;;;;8.48;6.38;;;;;;;16.11;71.18;99217.72;5033990;28;20202;-57
2022/10/16 08:42:18;;;;;;;12.30;6.55;;;;;;;16.18;70.99;99218.88;5032819;28;20214;-57
2022/10/16 08:44:46;;;;;;;11.02;6.53;;;;;;;16.31;70.99;99230.03;5033979;28;20169;-57
2022/10/16 08:47:23;;;;;;;10.52;6.28;;;;;;;16.44;68.73;99228.97;5034151;28;20179;-57
2022/10/16 08:49:58;;;;;;;7.07;5.60;;;;;;;16.41;68.72;99215.31;5034096;28;20170;-57
2022/10/16 08:52:29;;;;;;;9.48;5.63;;;;;;;16.58;66.49;99230.50;5034049;28;20239;-57
2022/10/16 08:54:55;;;;;;;5.32;4.75;;;;;;;16.49;63.77;99229.44;5033655;28;20190;-57
2022/10/16 08:57:23;;;;;;;5.82;4.40;;;;;;;16.31;62.02;99232.63;5033685;28;20261;-57
2022/10/16 08:59:49;;;;;;;5.05;4.45;;;;;;;16.33;62.38;99228.13;5032353;28;20186;-57
2022/10/16 09:02:28;;;;;;;6.75;4.40;;;;;;;16.45;63.21;99224.59;5033585;28;20170;-57
2022/10/16 09:04:54;;;;;;;7.65;4.13;;;;;;;16.57;61.52;99232.25;5034065;28;20162;-57
2022/10/16 09:07:32;;;;;;;11.73;5.50;;;;;;;16.61;61.61;99238.09;5033483;28;20685;-57
2022/10/16 09:10:00;;;;;;;4.88;4.15;;;;;;;16.76;61.57;99242.09;5033753;28;20154;-57
2022/10/16 09:12:38;;;;;;;7.13;5.00;;;;;;;16.69;60.34;99243.53;5033428;28;20181;-57
2022/10/16 09:15:12;;;;;;;6.95;5.10;;;;;;;16.77;61.43;99241.13;5033946;28;20197;-57
2022/10/16 09:17:52;;;;;;;7.53;5.60;;;;;;;16.88;61.92;99239.31;5033356;28;20166;-58
2022/10/16 09:20:52;;;;;;;6.30;4.50;;;;;;;16.72;59.38;99241.50;5033924;28;20186;-57
2022/10/16 09:23:34;;;;;;;4.68;4.20;;;;;;;16.69;58.65;99238.31;5031871;28;20210;-56
2022/10/16 09:26:00;;;;;;;6.57;4.90;;;;;;;16.80;59.29;99233.06;5033167;28;20178;-57
2022/10/16 09:28:25;;;;;;;5.78;4.65;;;;;;;16.73;58.79;99237.13;5033728;28;20177;-56
2022/10/16 09:30:51;;;;;;;5.82;4.15;;;;;;;16.86;59.06;99235.16;5033341;28;20184;-57
2022/10/16 09:33:20;;;;;;;4.60;3.97;;;;;;;17.00;58.37;99235.72;5033115;28;20185;-56
2022/10/16 09:35:52;;;;;;;7.38;4.90;;;;;;;17.11;57.11;99233.06;5033058;28;20292;-57
2022/10/16 09:38:24;;;;;;;5.22;4.10;;;;;;;17.15;55.07;99228.41;5033100;28;20177;-57
2022/10/16 09:40:50;;;;;;;7.32;4.03;;;;;;;17.24;54.92;99238.94;5032904;28;20251;-57
2022/10/16 09:43:21;;;;;;;4.50;4.10;;;;;;;17.30;55.61;99227.97;5032902;28;20228;-56
2022/10/16 09:46:05;;;;;;;10.75;4.68;;;;;;;17.23;54.38;99231.19;5032853;28;20245;-57
2022/10/16 09:48:39;;;;;;;5.50;4.20;;;;;;;17.36;55.78;99221.38;5032691;28;20178;-56
2022/10/16 09:51:06;;;;;;;5.78;4.25;;;;;;;17.45;53.13;99221.50;5033037;28;20166;-57
2022/10/16 09:53:40;;;;;;;6.82;4.35;;;;;;;17.54;53.81;99223.31;5032564;28;20210;-57
2022/10/16 09:56:06;;;;;;;5.75;4.10;;;;;;;17.39;53.09;99221.16;5032162;28;20721;-56
2022/10/16 09:58:33;;;;;;;7.35;4.47;;;;;;;17.44;54.44;99214.56;5031353;28;20182;-56
2022/10/16 10:00:59;;;;;;;5.35;4.13;;;;;;;17.47;54.47;99216.09;5032763;28;20236;-57
2022/10/16 10:03:36;;;;;;;6.25;3.70;;;;;;;17.54;53.32;99209.44;5031302;28;20177;-57
2022/10/16 10:06:14;;;;;;;6.03;4.47;;;;;;;17.55;54.88;99206.66;5031834;28;20184;-56
2022/10/16 10:08:39;;;;;;;8.65;4.78;;;;;;;17.74;54.53;99203.31;5031225;28;20174;-57
2022/10/16 10:11:05;;;;;;;7.78;4.55;;;;;;;17.80;54.08;99195.78;5032639;28;20638;-57
2022/10/16 10:13:30;;;;;;;7.25;4.22;;;;;;;17.95;54.25;99198.88;5032311;28;20625;-58
2022/10/16 10:15:57;;;;;;;5.13;3.85;;;;;;;18.08;53.06;99200.28;5032592;28;20216;-58
2022/10/16 10:18:23;;;;;;;4.32;3.92;;;;;;;18.14;51.76;99196.31;5032336;28;20177;-58
2022/10/16 10:21:02;;;;;;;4.55;3.78;;;;;;;18.22;52.75;99199.09;5032555;28;20180;-57
2022/10/16 10:23:30;;;;;;;6.85;4.32;;;;;;;18.30;52.87;99201.91;5032137;28;20190;-57
2022/10/16 10:26:05;;;;;;;8.77;4.38;;;;;;;18.26;50.99;99203.97;5030822;28;20256;-57
2022/10/16 10:28:45;;;;;;;7.85;4.68;;;;;;;18.53;52.25;99200.75;5030921;28;20178;-57
2022/10/16 10:31:13;;;;;;;6.88;4.57;;;;;;;18.76;51.87;99202.97;5032140;28;20223;-57
2022/10/16 10:33:51;;;;;;;8.98;4.30;;;;;;;18.76;49.71;99202.16;5032563;28;20202;-57
2022/10/16 10:36:32;;;;;;;6.53;4.97;;;;;;;18.97;49.98;99200.22;5032230;28;20236;-57
2022/10/16 10:39:05;;;;;;;5.40;4.38;;;;;;;19.13;50.36;99192.63;5032298;28;20161;-57
2022/10/16 10:41:30;;;;;;;6.05;4.25;;;;;;;19.30;49.48;99199.81;5032700;28;20171;-57
2022/10/16 10:44:25;;;;;;;4.50;4.10;;;;;;;19.28;47.95;99194.69;5032050;28;20170;-57
2022/10/16 10:46:56;;;;;;;7.10;4.90;;;;;;;19.37;48.06;99188.63;5032287;28;20219;-57
2022/10/16 10:49:27;;;;;;;8.98;4.75;;;;;;;19.50;48.96;99189.13;5032275;28;20598;-57
2022/10/16 10:52:25;;;;;;;9.50;5.65;;;;;;;19.61;49.28;99190.75;5031963;28;20201;-56
2022/10/16 10:55:04;;;;;;;5.85;5.10;;;;;;;19.66;48.57;99173.63;5032143;28;20198;-56
2022/10/16 10:57:36;;;;;;;4.70;4.30;;;;;;;19.83;47.80;99183.38;5030683;28;20252;-56
2022/10/16 11:00:25;;;;;;;4.88;4.30;;;;;;;19.76;46.20;99177.03;5031910;28;20173;-56
2022/10/16 11:03:03;;;;;;;5.13;4.10;;;;;;;19.80;46.38;99174.94;5032142;28;20173;-56
2022/10/16 11:05:49;;;;;;;6.75;4.18;;;;;;;19.71;45.93;99178.44;5032386;28;20228;-57
2022/10/16 11:08:46;;;;;;;4.25;3.90;;;;;;;19.86;45.64;99179.59;5032122;28;20150;-57
2022/10/16 11:11:18;;;;;;;4.35;3.63;;;;;;;19.89;44.74;99179.34;5031302;28;20186;-57
2022/10/16 11:14:03;;;;;;;5.90;3.78;;;;;;;19.98;44.26;99174.03;5031898;28;20197;-57
2022/10/16 11:16:34;;;;;;;7.43;4.20;;;;;;;20.15;44.01;99172.47;5032733;28;20188;-57
2022/10/16 11:19:09;;;;;;;5.15;4.65;;;;;;;20.16;43.71;99171.50;5035894;28;20166;-57
2022/10/16 11:21:44;;;;;;;8.68;3.75;;;;;;;20.24;43.18;99168.97;5035446;28;20236;-57
2022/10/16 11:24:45;;;;;;;4.32;3.92;;;;;;;20.19;43.35;99166.78;5035426;28;20178;-57
2022/10/16 11:27:16;;;;;;;5.65;3.83;;;;;;;20.37;43.49;99166.81;5035776;28;20220;-57
2022/10/16 11:29:57;;;;;;;4.80;3.88;;;;;;;20.39;42.69;99173.56;5034108;28;20158;-58
2022/10/16 11:32:33;;;;;;;6.20;3.42;;;;;;;20.44;42.03;99165.22;5035905;28;20154;-57
2022/10/16 11:35:31;;;;;;;3.90;3.50;;;;;;;20.34;41.86;99172.38;5035460;28;20209;-57
2022/10/16 11:37:59;;;;;;;4.72;3.63;;;;;;;20.27;43.01;99168.66;5033947;28;20285;-58
2022/10/16 11:40:31;;;;;;;3.45;3.10;;;;;;;19.80;43.62;99165.28;5035231;28;20223;-56